Time;durP1;ratioP1;P1;durP2;ratioP2;P2;SDS_P1;SDS_P2;PMS_P1;PMS_P2;Temp;Humidity;BMP_temperature;BMP_pressure;BME280_temperature;BME280_humidity;BME280_pressure;Samples;Min_cycle;Max_cycle;Signal;HPM_P1;HPM_P2
2022/02/27 00:00:09;;;;;;;29.08;12.15;;;1.00;99.90;;;;;;4947600;28;20113;-87
2022/02/27 00:02:35;;;;;;;33.45;13.13;;;1.00;99.90;;;;;;4943092;28;20077;-89
2022/02/27 00:05:01;;;;;;;36.15;15.10;;;1.00;99.90;;;;;;4914280;28;20066;-88
2022/02/27 00:07:27;;;;;;;33.65;13.82;;;0.90;99.90;;;;;;4935459;28;20535;-87
2022/02/27 00:09:52;;;;;;;37.00;13.15;;;0.90;99.90;;;;;;4928105;28;20046;-87
2022/02/27 00:12:18;;;;;;;29.98;13.05;;;0.90;99.90;;;;;;4925688;28;20073;-87
2022/02/27 00:14:44;;;;;;;27.90;13.02;;;0.90;99.90;;;;;;4930158;28;20059;-88
2022/02/27 00:17:09;;;;;;;38.88;14.65;;;0.80;99.90;;;;;;4912033;28;20046;-88
2022/02/27 00:19:35;;;;;;;40.08;15.27;;;0.80;99.90;;;;;;4929144;28;20217;-88
2022/02/27 00:22:01;;;;;;;32.00;15.63;;;0.80;99.90;;;;;;4927064;28;20577;-87
2022/02/27 00:24:27;;;;;;;42.55;14.85;;;0.70;99.90;;;;;;4943344;28;20133;-87
2022/02/27 00:26:52;;;;;;;37.78;14.60;;;0.80;99.90;;;;;;4929480;28;20402;-88
2022/02/27 00:29:18;;;;;;;32.45;13.02;;;0.70;99.90;;;;;;4931363;28;20035;-87
2022/02/27 00:31:44;;;;;;;37.03;14.48;;;0.70;99.90;;;;;;4932067;28;20395;-87
2022/02/27 00:34:10;;;;;;;26.95;12.35;;;0.60;99.90;;;;;;4947487;28;20045;-87
2022/02/27 00:36:36;;;;;;;27.75;12.43;;;0.60;99.90;;;;;;4914593;28;20136;-89
2022/02/27 00:39:01;;;;;;;28.95;11.82;;;0.60;99.90;;;;;;4921457;28;20046;-87
2022/02/27 00:41:27;;;;;;;28.30;11.88;;;0.50;99.90;;;;;;4927948;28;20049;-87
2022/02/27 00:43:53;;;;;;;28.40;10.80;;;0.50;99.90;;;;;;4925695;28;20521;-88
2022/02/27 00:46:19;;;;;;;26.98;10.15;;;0.50;99.90;;;;;;4931371;28;20513;-88
2022/02/27 00:48:45;;;;;;;22.35;10.18;;;0.40;99.90;;;;;;4926300;28;20549;-87
2022/02/27 00:51:11;;;;;;;29.65;10.25;;;0.40;99.90;;;;;;4927714;28;20038;-87
2022/02/27 00:53:37;;;;;;;22.48;9.68;;;0.50;99.90;;;;;;4925829;28;20053;-87
2022/02/27 00:56:03;;;;;;;23.13;10.35;;;0.40;99.90;;;;;;4929917;28;20050;-87
2022/02/27 00:58:29;;;;;;;33.05;10.45;;;0.40;99.90;;;;;;4931778;28;20553;-87
2022/02/27 01:00:54;;;;;;;21.67;10.43;;;0.40;99.90;;;;;;4926608;28;20122;-88
2022/02/27 01:03:20;;;;;;;33.47;10.85;;;0.40;99.90;;;;;;4909370;28;20043;-87
2022/02/27 01:05:46;;;;;;;22.60;9.35;;;0.40;99.90;;;;;;4930843;28;20054;-87
2022/02/27 01:08:12;;;;;;;27.00;10.48;;;0.30;99.90;;;;;;4915368;28;20122;-87
2022/02/27 01:10:37;;;;;;;29.90;10.07;;;0.40;99.90;;;;;;4916957;28;20049;-87
2022/02/27 01:13:03;;;;;;;35.38;10.73;;;0.30;99.90;;;;;;4943416;28;20487;-87
2022/02/27 01:15:29;;;;;;;24.67;11.07;;;0.40;99.90;;;;;;4922537;28;20149;-87
2022/02/27 01:17:55;;;;;;;31.33;12.77;;;0.30;99.90;;;;;;4928264;28;20066;-88
2022/02/27 01:20:21;;;;;;;28.80;11.20;;;0.40;99.90;;;;;;4926034;28;21959;-87
2022/02/27 01:22:47;;;;;;;26.13;10.60;;;0.30;99.90;;;;;;4926902;28;20070;-87
2022/02/27 01:25:13;;;;;;;24.30;10.13;;;0.30;99.90;;;;;;4953473;28;20106;-87
2022/02/27 01:27:38;;;;;;;37.30;10.27;;;0.40;99.90;;;;;;4911834;28;20410;-87
2022/02/27 01:30:07;;;;;;;31.23;9.63;;;0.30;99.90;;;;;;4927591;28;20105;-87
2022/02/27 01:32:33;;;;;;;24.20;10.68;;;0.40;99.90;;;;;;4941014;28;20050;-87
2022/02/27 01:34:58;;;;;;;34.17;10.80;;;0.40;99.90;;;;;;4920132;28;20035;-88
2022/02/27 01:37:24;;;;;;;30.08;10.80;;;0.40;99.90;;;;;;4912608;28;20465;-87
2022/02/27 01:39:50;;;;;;;24.95;9.75;;;0.40;99.90;;;;;;4923252;28;20349;-87
2022/02/27 01:42:17;;;;;;;24.35;9.13;;;0.40;99.90;;;;;;4917152;28;20042;-87
2022/02/27 01:44:44;;;;;;;32.78;9.82;;;0.40;99.90;;;;;;4946462;28;20039;-88
2022/02/27 01:47:12;;;;;;;26.83;8.55;;;0.40;99.90;;;;;;4939057;28;20047;-88
2022/02/27 01:49:44;;;;;;;27.08;9.07;;;0.40;99.90;;;;;;4945206;28;20498;-88
2022/02/27 01:52:10;;;;;;;22.80;9.48;;;0.40;99.90;;;;;;4928308;28;20478;-87
2022/02/27 01:54:36;;;;;;;22.73;9.20;;;0.30;99.90;;;;;;4937354;28;20031;-87
2022/02/27 01:57:03;;;;;;;21.63;8.48;;;0.30;99.90;;;;;;4920954;28;20093;-87
2022/02/27 01:59:29;;;;;;;25.95;9.45;;;0.30;99.90;;;;;;4922226;28;20050;-87
2022/02/27 02:01:55;;;;;;;29.52;9.23;;;0.30;99.90;;;;;;4937698;28;20384;-87
2022/02/27 02:04:20;;;;;;;23.85;9.32;;;0.30;99.90;;;;;;4906107;28;20185;-87
2022/02/27 02:06:46;;;;;;;30.42;9.38;;;0.30;99.90;;;;;;4917624;28;20043;-89
2022/02/27 02:09:12;;;;;;;29.17;9.23;;;0.20;99.90;;;;;;4920882;28;20163;-86
2022/02/27 02:11:38;;;;;;;27.60;10.25;;;0.20;99.90;;;;;;4919985;28;20499;-87
2022/02/27 02:14:05;;;;;;;26.58;10.43;;;0.20;99.90;;;;;;4934647;28;20096;-87
2022/02/27 02:16:38;;;;;;;27.70;10.27;;;0.10;99.90;;;;;;4923517;28;20069;-90
2022/02/27 02:19:04;;;;;;;27.65;9.95;;;0.10;99.90;;;;;;4919534;28;20181;-87
2022/02/27 02:21:40;;;;;;;21.73;8.95;;;0.10;99.90;;;;;;4909525;28;20197;-88
2022/02/27 02:24:06;;;;;;;21.55;9.05;;;0.10;99.90;;;;;;4937627;28;20050;-88
2022/02/27 02:26:34;;;;;;;29.65;9.70;;;0.00;99.90;;;;;;4904646;28;20133;-87
2022/02/27 02:29:00;;;;;;;23.23;7.88;;;0.10;99.90;;;;;;4935765;28;20066;-89
2022/02/27 02:31:25;;;;;;;21.98;8.93;;;-0.10;99.90;;;;;;4938449;28;20046;-87
2022/02/27 02:33:51;;;;;;;17.48;7.43;;;-0.10;99.90;;;;;;4935956;28;20493;-87
2022/02/27 02:36:17;;;;;;;27.42;7.88;;;-0.20;99.90;;;;;;4906512;28;20051;-88
2022/02/27 02:38:43;;;;;;;22.33;7.43;;;-0.10;99.90;;;;;;4921102;28;20063;-86
2022/02/27 02:41:09;;;;;;;19.20;7.72;;;-0.10;99.90;;;;;;4920307;28;20043;-87
2022/02/27 02:43:35;;;;;;;23.92;8.05;;;-0.20;99.90;;;;;;4933231;28;20089;-90
2022/02/27 02:46:01;;;;;;;26.35;8.80;;;-0.20;99.90;;;;;;4919876;28;20518;-89
2022/02/27 02:48:26;;;;;;;23.65;7.65;;;-0.10;99.90;;;;;;4921627;28;20081;-88
2022/02/27 02:50:52;;;;;;;25.20;9.65;;;-0.20;99.90;;;;;;4921030;28;20066;-88
2022/02/27 02:53:18;;;;;;;23.95;9.82;;;-0.20;99.90;;;;;;4909728;28;20039;-87
2022/02/27 02:55:44;;;;;;;42.97;14.60;;;-0.10;99.90;;;;;;4920919;28;20478;-87
2022/02/27 02:58:09;;;;;;;48.58;12.80;;;-0.20;99.90;;;;;;4940115;28;20031;-87
2022/02/27 03:00:35;;;;;;;37.03;13.52;;;-0.20;99.90;;;;;;4913267;28;20047;-87
2022/02/27 03:03:01;;;;;;;35.65;12.43;;;-0.20;99.90;;;;;;4923820;28;20048;-87
2022/02/27 03:05:27;;;;;;;28.88;10.10;;;-0.20;99.90;;;;;;4912904;28;20367;-88
2022/02/27 03:07:53;;;;;;;26.50;10.27;;;-0.20;99.90;;;;;;4935522;28;20525;-88
2022/02/27 03:10:18;;;;;;;29.33;10.48;;;-0.20;99.90;;;;;;4926935;28;20038;-88
2022/02/27 03:12:44;;;;;;;31.63;10.52;;;-0.20;99.90;;;;;;4911665;28;20399;-87
2022/02/27 03:15:10;;;;;;;27.15;10.68;;;-0.30;99.90;;;;;;4925233;28;20057;-88
2022/02/27 03:17:36;;;;;;;29.40;8.80;;;-0.30;99.90;;;;;;4928431;28;20118;-89
2022/02/27 03:20:03;;;;;;;27.60;9.23;;;-0.30;99.90;;;;;;4926887;28;20074;-87
2022/02/27 03:22:29;;;;;;;28.40;8.55;;;-0.30;99.90;;;;;;4926070;28;20083;-87
2022/02/27 03:24:55;;;;;;;25.75;7.80;;;-0.30;99.90;;;;;;4924939;28;20154;-87
2022/02/27 03:27:20;;;;;;;25.50;8.68;;;-0.30;99.90;;;;;;4909670;28;20105;-87
2022/02/27 03:29:46;;;;;;;17.58;8.00;;;-0.40;99.90;;;;;;4915968;28;20524;-87
2022/02/27 03:32:12;;;;;;;26.05;8.15;;;-0.30;99.90;;;;;;4910410;28;20085;-88
2022/02/27 03:34:37;;;;;;;24.13;8.10;;;-0.40;99.90;;;;;;4909709;28;20532;-87
2022/02/27 03:37:05;;;;;;;29.58;7.85;;;-0.30;99.90;;;;;;4924337;28;20414;-88
2022/02/27 03:39:30;;;;;;;25.20;7.70;;;-0.40;99.90;;;;;;4930567;28;20555;-87
2022/02/27 03:41:56;;;;;;;19.75;8.00;;;-0.50;99.90;;;;;;4924196;28;20085;-87
2022/02/27 03:44:22;;;;;;;22.13;8.45;;;-0.40;99.90;;;;;;4921762;28;20161;-88
2022/02/27 03:46:48;;;;;;;25.95;8.38;;;-0.50;99.90;;;;;;4921900;28;20051;-87
2022/02/27 03:49:13;;;;;;;25.38;8.60;;;-0.50;99.90;;;;;;4942822;28;20305;-87
2022/02/27 03:51:39;;;;;;;21.38;7.75;;;-0.40;99.90;;;;;;4923065;28;20114;-87
2022/02/27 03:54:05;;;;;;;24.50;8.75;;;-0.40;99.90;;;;;;4952660;28;20067;-88
2022/02/27 03:56:31;;;;;;;28.77;8.88;;;-0.40;99.90;;;;;;4907535;28;20134;-89
2022/02/27 03:58:56;;;;;;;25.17;8.65;;;-0.40;99.90;;;;;;4962878;28;20046;-87
2022/02/27 04:01:23;;;;;;;29.23;8.88;;;-0.50;99.90;;;;;;4929602;28;20042;-87
2022/02/27 04:03:50;;;;;;;26.65;8.60;;;-0.40;99.90;;;;;;4945781;28;20034;-87
2022/02/27 04:06:15;;;;;;;18.48;8.40;;;-0.40;99.90;;;;;;4937645;28;20043;-87
2022/02/27 04:08:41;;;;;;;21.88;8.80;;;-0.40;99.90;;;;;;4936722;28;20045;-87
2022/02/27 04:11:07;;;;;;;30.42;10.02;;;-0.40;99.90;;;;;;4941564;28;20039;-87
2022/02/27 04:13:33;;;;;;;27.52;9.20;;;-0.40;99.90;;;;;;4925024;28;20035;-89
2022/02/27 04:15:59;;;;;;;26.20;8.68;;;-0.40;99.90;;;;;;4944597;28;20034;-88
2022/02/27 04:18:25;;;;;;;27.80;9.40;;;-0.40;99.90;;;;;;4941488;28;20078;-88
2022/02/27 04:20:51;;;;;;;19.92;8.43;;;-0.50;99.90;;;;;;4930787;28;20081;-88
2022/02/27 04:23:17;;;;;;;26.98;8.88;;;-0.30;99.90;;;;;;4943459;28;20035;-89
2022/02/27 04:25:43;;;;;;;22.98;9.32;;;-0.50;99.90;;;;;;4946031;28;20446;-89
2022/02/27 04:28:09;;;;;;;23.15;9.18;;;-0.40;99.90;;;;;;4915261;28;20259;-88
2022/02/27 04:30:34;;;;;;;25.33;9.52;;;-0.40;99.90;;;;;;4931770;28;20035;-88
2022/02/27 04:33:02;;;;;;;33.13;10.32;;;-0.40;99.90;;;;;;4929962;28;20081;-88
2022/02/27 04:35:28;;;;;;;23.63;9.80;;;-0.40;99.90;;;;;;4929214;28;20038;-88
2022/02/27 04:37:53;;;;;;;25.35;9.80;;;-0.40;99.90;;;;;;4912798;28;20065;-90
2022/02/27 04:40:19;;;;;;;22.67;8.68;;;-0.50;99.90;;;;;;4916687;28;20320;-88
2022/02/27 04:42:45;;;;;;;23.67;9.10;;;-0.50;99.90;;;;;;4933008;28;20093;-87
2022/02/27 04:45:11;;;;;;;26.80;10.00;;;-0.40;99.90;;;;;;4917694;28;20043;-89
2022/02/27 04:47:36;;;;;;;21.80;9.13;;;-0.50;99.90;;;;;;4922067;28;20050;-88
2022/02/27 04:50:04;;;;;;;29.92;10.30;;;-0.50;99.90;;;;;;4942834;28;20125;-90
2022/02/27 04:52:30;;;;;;;25.70;10.02;;;-0.50;99.90;;;;;;4940432;28;20043;-87
2022/02/27 04:54:55;;;;;;;35.75;10.15;;;-0.50;99.90;;;;;;4906231;28;20253;-88
2022/02/27 04:57:21;;;;;;;30.52;10.25;;;-0.50;99.90;;;;;;4924561;28;20070;-88
2022/02/27 04:59:47;;;;;;;19.05;9.82;;;-0.50;99.90;;;;;;4924028;28;20047;-89
2022/02/27 05:02:13;;;;;;;24.52;9.90;;;-0.50;99.90;;;;;;4922746;28;20042;-88
2022/02/27 05:04:38;;;;;;;26.15;9.13;;;-0.50;99.90;;;;;;4924564;28;20046;-88
2022/02/27 05:07:04;;;;;;;21.63;9.07;;;-0.50;99.90;;;;;;4925779;28;20050;-89
2022/02/27 05:09:31;;;;;;;27.38;10.13;;;-0.60;99.90;;;;;;4939644;28;20035;-88
2022/02/27 05:11:57;;;;;;;27.77;10.30;;;-0.50;99.90;;;;;;4926084;28;20498;-87
2022/02/27 05:14:23;;;;;;;29.33;10.45;;;-0.50;99.90;;;;;;4923682;28;20413;-88
2022/02/27 05:16:49;;;;;;;31.42;9.95;;;-0.50;99.90;;;;;;4943376;28;20046;-87
2022/02/27 05:19:15;;;;;;;20.35;9.40;;;-0.50;99.90;;;;;;4928433;28;20201;-87
2022/02/27 05:21:40;;;;;;;24.30;9.57;;;-0.60;99.90;;;;;;4913156;28;20051;-88
2022/02/27 05:24:06;;;;;;;38.88;11.35;;;-0.60;99.90;;;;;;4928002;28;20544;-87
2022/02/27 05:26:33;;;;;;;24.67;9.88;;;-0.60;99.90;;;;;;4958767;28;20043;-87
2022/02/27 05:28:59;;;;;;;30.10;11.50;;;-0.60;99.90;;;;;;4930612;28;20039;-87
2022/02/27 05:31:25;;;;;;;24.90;9.75;;;-0.60;99.90;;;;;;4929067;28;20376;-88
2022/02/27 05:33:51;;;;;;;26.10;10.82;;;-0.60;99.90;;;;;;4926734;28;20046;-88
2022/02/27 05:36:17;;;;;;;27.25;9.68;;;-0.70;99.90;;;;;;4915397;28;20135;-88
2022/02/27 05:38:43;;;;;;;31.77;11.55;;;-0.70;99.90;;;;;;4946240;28;20608;-88
2022/02/27 05:41:09;;;;;;;26.83;10.15;;;-0.60;99.90;;;;;;4926313;28;20174;-86
2022/02/27 05:43:35;;;;;;;19.17;10.25;;;-0.60;99.90;;;;;;4929941;28;20126;-88
2022/02/27 05:46:00;;;;;;;34.60;10.88;;;-0.70;99.90;;;;;;4929637;28;20049;-88
2022/02/27 05:48:26;;;;;;;31.85;10.68;;;-0.70;99.90;;;;;;4937542;28;20039;-88
2022/02/27 05:50:53;;;;;;;22.75;10.00;;;-0.70;99.90;;;;;;4926810;28;20043;-88
2022/02/27 05:53:19;;;;;;;22.52;11.02;;;-0.70;99.90;;;;;;4928001;28;20041;-88
2022/02/27 05:55:45;;;;;;;31.30;11.55;;;-0.70;99.90;;;;;;4932001;28;20043;-88
2022/02/27 05:58:11;;;;;;;30.17;11.43;;;-0.70;99.90;;;;;;4927415;28;20039;-88
2022/02/27 06:00:37;;;;;;;32.20;11.20;;;-0.70;99.90;;;;;;4945852;28;20042;-88
2022/02/27 06:03:02;;;;;;;29.67;11.85;;;-0.60;99.90;;;;;;4942310;28;20072;-88
2022/02/27 06:05:29;;;;;;;32.97;12.00;;;-0.70;99.90;;;;;;4907119;28;20146;-88
2022/02/27 06:07:55;;;;;;;26.50;11.95;;;-0.70;99.90;;;;;;4928474;28;20039;-88
2022/02/27 06:10:21;;;;;;;31.13;12.25;;;-0.70;99.90;;;;;;4926909;28;20126;-88
2022/02/27 06:12:50;;;;;;;33.45;12.52;;;-0.70;99.90;;;;;;4940579;28;20130;-89
2022/02/27 06:15:17;;;;;;;25.90;11.98;;;-0.70;99.90;;;;;;4928836;28;20049;-88
2022/02/27 06:17:43;;;;;;;35.13;13.85;;;-0.70;99.90;;;;;;4947388;28;20043;-88
2022/02/27 06:20:10;;;;;;;27.00;12.25;;;-0.80;99.90;;;;;;4924711;28;20482;-88
2022/02/27 06:22:43;;;;;;;35.63;12.90;;;-0.70;99.90;;;;;;4925402;28;20130;-88
2022/02/27 06:25:10;;;;;;;27.25;12.57;;;-0.70;99.90;;;;;;4939069;28;20045;-88
2022/02/27 06:27:42;;;;;;;37.90;13.63;;;-0.70;99.90;;;;;;4922242;28;20609;-88
2022/02/27 06:30:27;;;;;;;37.90;13.93;;;-0.70;99.90;;;;;;4925300;28;20039;-88
2022/02/27 06:32:54;;;;;;;33.40;12.77;;;-0.70;99.90;;;;;;4935868;28;20046;-87
2022/02/27 06:35:22;;;;;;;32.05;14.48;;;-0.70;99.90;;;;;;4937321;28;20423;-88
2022/02/27 06:37:47;;;;;;;42.53;14.35;;;-0.70;99.90;;;;;;4925117;28;20074;-88
2022/02/27 06:40:14;;;;;;;36.38;13.63;;;-0.70;99.90;;;;;;4938199;28;20142;-88
2022/02/27 06:42:41;;;;;;;36.38;13.48;;;-0.70;99.90;;;;;;4918684;28;20090;-89
2022/02/27 06:45:09;;;;;;;37.58;13.98;;;-0.70;99.90;;;;;;4934389;28;20049;-89
2022/02/27 06:47:35;;;;;;;34.10;14.15;;;-0.60;99.90;;;;;;4932354;28;22287;-89
2022/02/27 06:50:01;;;;;;;46.53;14.82;;;-0.60;99.90;;;;;;4942527;28;20042;-89
2022/02/27 06:52:27;;;;;;;30.40;14.00;;;-0.60;99.90;;;;;;4926290;28;20047;-89
2022/02/27 06:54:53;;;;;;;32.17;14.02;;;-0.60;99.90;;;;;;4934471;28;20576;-89
2022/02/27 06:57:22;;;;;;;31.48;13.95;;;-0.60;99.90;;;;;;4923159;28;20039;-89
2022/02/27 06:59:48;;;;;;;35.65;14.40;;;-0.50;99.90;;;;;;4944983;28;20086;-89
2022/02/27 07:02:14;;;;;;;35.08;14.13;;;-0.50;99.90;;;;;;4909855;28;20520;-88
2022/02/27 07:04:41;;;;;;;42.47;14.60;;;-0.50;99.90;;;;;;4926387;28;20193;-89
2022/02/27 07:07:06;;;;;;;36.92;14.35;;;-0.40;99.90;;;;;;4940931;28;20398;-89
2022/02/27 07:09:32;;;;;;;36.70;15.52;;;-0.40;99.90;;;;;;4926012;28;20044;-88
2022/02/27 07:11:58;;;;;;;34.00;14.40;;;-0.30;99.90;;;;;;4908659;28;20039;-89
2022/02/27 07:14:24;;;;;;;29.55;13.32;;;-0.30;99.90;;;;;;4909478;28;20525;-89
2022/02/27 07:16:50;;;;;;;44.38;15.20;;;-0.30;99.90;;;;;;4924324;28;20418;-89
2022/02/27 07:19:16;;;;;;;34.28;15.18;;;-0.20;99.90;;;;;;4926422;28;20043;-88
2022/02/27 07:21:42;;;;;;;42.63;15.00;;;-0.20;99.90;;;;;;4929844;28;20039;-89
2022/02/27 07:24:08;;;;;;;34.90;15.48;;;-0.20;99.90;;;;;;4934094;28;20056;-88
2022/02/27 07:26:34;;;;;;;30.92;14.98;;;-0.10;99.90;;;;;;4925953;28;20039;-89
2022/02/27 07:28:59;;;;;;;32.30;14.15;;;0.00;99.90;;;;;;4932664;28;20248;-88
2022/02/27 07:31:25;;;;;;;32.10;13.93;;;0.10;99.90;;;;;;4930991;28;20521;-88
2022/02/27 07:33:51;;;;;;;38.50;14.60;;;0.10;99.90;;;;;;4931557;28;20118;-88
2022/02/27 07:36:17;;;;;;;33.58;13.85;;;0.20;99.90;;;;;;4949148;28;20046;-88
2022/02/27 07:38:43;;;;;;;33.08;14.70;;;0.20;99.90;;;;;;4947342;28;20414;-88
2022/02/27 07:41:09;;;;;;;38.67;15.02;;;0.30;99.90;;;;;;4926916;28;20047;-88
2022/02/27 07:43:36;;;;;;;29.60;13.52;;;0.30;99.90;;;;;;4941185;28;20442;-88
2022/02/27 07:46:03;;;;;;;29.17;12.88;;;0.50;99.90;;;;;;4913525;28;20039;-88
2022/02/27 07:48:29;;;;;;;30.13;13.25;;;0.50;99.90;;;;;;4922052;28;20513;-87
2022/02/27 07:50:55;;;;;;;24.80;12.30;;;0.60;99.90;;;;;;4937943;28;20097;-88
2022/02/27 07:53:21;;;;;;;28.40;12.27;;;0.60;99.90;;;;;;4938056;28;20047;-88
2022/02/27 07:55:46;;;;;;;33.30;13.75;;;0.80;99.90;;;;;;4940811;28;20398;-87
2022/02/27 07:58:13;;;;;;;29.60;12.40;;;0.80;99.90;;;;;;4926677;28;20380;-87
2022/02/27 08:00:40;;;;;;;26.50;11.90;;;0.90;99.90;;;;;;4922104;28;20109;-88
2022/02/27 08:03:10;;;;;;;30.05;12.20;;;1.00;99.90;;;;;;4937188;28;20565;-87
2022/02/27 08:05:36;;;;;;;41.42;12.38;;;1.10;99.90;;;;;;4939556;28;20077;-87
2022/02/27 08:08:01;;;;;;;30.08;12.02;;;1.10;99.90;;;;;;4924263;28;20039;-88
2022/02/27 08:10:27;;;;;;;30.35;11.40;;;1.20;99.90;;;;;;4928548;28;20062;-87
2022/02/27 08:12:54;;;;;;;26.23;12.27;;;1.30;99.90;;;;;;4937457;28;20133;-87
2022/02/27 08:15:20;;;;;;;30.27;11.95;;;1.40;99.90;;;;;;4922308;28;20041;-88
2022/02/27 08:17:46;;;;;;;29.77;12.00;;;1.50;99.90;;;;;;4948943;28;20054;-88
2022/02/27 08:20:13;;;;;;;30.67;12.50;;;1.50;99.90;;;;;;4927588;28;20410;-88
2022/02/27 08:22:40;;;;;;;23.33;9.82;;;1.70;99.90;;;;;;4943106;28;20050;-87
2022/02/27 08:25:07;;;;;;;23.08;10.85;;;1.70;99.90;;;;;;4944315;28;20050;-87
2022/02/27 08:27:34;;;;;;;26.67;10.02;;;1.80;99.90;;;;;;4948452;28;20042;-87
2022/02/27 08:29:59;;;;;;;22.27;10.00;;;1.90;99.90;;;;;;4951004;28;20035;-88
2022/02/27 08:32:26;;;;;;;22.55;9.80;;;2.00;99.90;;;;;;4932440;28;20102;-88
2022/02/27 08:34:53;;;;;;;24.10;10.45;;;2.10;99.90;;;;;;4947365;28;20545;-87
2022/02/27 08:37:19;;;;;;;19.98;10.13;;;2.30;99.90;;;;;;4930062;28;20042;-87
2022/02/27 08:39:45;;;;;;;24.25;9.35;;;2.40;99.90;;;;;;4947146;28;20461;-87
2022/02/27 08:42:10;;;;;;;23.38;9.93;;;2.50;99.90;;;;;;4932444;28;20070;-87
2022/02/27 08:44:36;;;;;;;19.70;9.75;;;2.60;99.90;;;;;;4931782;28;20098;-87
2022/02/27 08:47:04;;;;;;;29.92;9.65;;;2.70;99.90;;;;;;4932721;28;20475;-88
2022/02/27 08:49:31;;;;;;;23.33;9.38;;;2.80;99.90;;;;;;4979731;28;20574;-88
2022/02/27 08:51:57;;;;;;;22.15;8.88;;;2.90;99.90;;;;;;4948691;28;20460;-88
2022/02/27 08:54:24;;;;;;;23.77;9.45;;;3.00;99.90;;;;;;4934508;28;20039;-88
2022/02/27 08:56:50;;;;;;;22.95;8.85;;;3.10;99.90;;;;;;4962682;28;20578;-87
2022/02/27 08:59:16;;;;;;;20.55;8.98;;;3.20;99.90;;;;;;4932826;28;20517;-89
2022/02/27 09:01:42;;;;;;;18.00;7.97;;;3.30;99.90;;;;;;4932726;28;20121;-87
2022/02/27 09:04:08;;;;;;;23.17;8.40;;;3.40;99.90;;;;;;4950710;28;20050;-88
2022/02/27 09:06:33;;;;;;;27.33;8.98;;;3.50;99.90;;;;;;4947451;28;20104;-87
2022/02/27 09:08:59;;;;;;;14.85;7.07;;;3.60;99.90;;;;;;4927736;28;20410;-87
2022/02/27 09:11:25;;;;;;;15.85;7.45;;;3.70;99.90;;;;;;4947997;28;20046;-86
2022/02/27 09:13:51;;;;;;;20.63;7.38;;;3.80;99.90;;;;;;4929900;28;20039;-87
2022/02/27 09:16:17;;;;;;;15.50;7.22;;;3.90;99.90;;;;;;4946419;28;20038;-89
2022/02/27 09:18:42;;;;;;;15.20;7.00;;;4.00;99.90;;;;;;4917104;28;20042;-88
2022/02/27 09:21:08;;;;;;;15.00;6.60;;;4.10;99.90;;;;;;4931192;28;20399;-88
2022/02/27 09:23:35;;;;;;;14.10;6.88;;;4.20;99.90;;;;;;4943924;28;20051;-87
2022/02/27 09:26:04;;;;;;;19.83;7.70;;;4.20;99.90;;;;;;4919789;28;20068;-87
2022/02/27 09:28:33;;;;;;;21.95;7.75;;;4.30;99.90;;;;;;4943554;28;20048;-87
2022/02/27 09:30:59;;;;;;;24.40;7.72;;;4.40;99.90;;;;;;4941431;28;20038;-88
2022/02/27 09:33:25;;;;;;;26.92;7.22;;;4.50;99.90;;;;;;4929415;28;20054;-87
2022/02/27 09:35:53;;;;;;;13.27;5.78;;;4.60;99.90;;;;;;4958545;28;20035;-88
2022/02/27 09:38:19;;;;;;;16.17;7.20;;;4.60;99.90;;;;;;4945797;28;20447;-88
2022/02/27 09:40:50;;;;;;;20.00;6.80;;;4.70;99.90;;;;;;4963093;23;20045;-88
2022/02/27 09:43:19;;;;;;;16.95;6.63;;;4.70;99.90;;;;;;4982905;28;20085;-88
2022/02/27 09:45:47;;;;;;;13.48;6.15;;;4.90;99.90;;;;;;4986707;28;20042;-87
2022/02/27 09:48:13;;;;;;;20.10;7.03;;;4.90;99.90;;;;;;5003955;28;20215;-87
2022/02/27 09:50:40;;;;;;;16.92;5.93;;;5.00;99.90;;;;;;4963944;28;20046;-87
2022/02/27 09:53:09;;;;;;;14.18;5.97;;;5.10;99.90;;;;;;4966663;28;20531;-88
2022/02/27 09:55:36;;;;;;;17.10;6.32;;;5.20;99.90;;;;;;4947254;28;20030;-88
2022/02/27 09:58:02;;;;;;;25.15;6.70;;;;;;;;;;4970890;28;20049;-88
2022/02/27 10:00:28;;;;;;;12.68;5.57;;;;;;;;;;4970136;28;20055;-87
2022/02/27 10:03:15;;;;;;;15.00;5.97;;;;;;;;;;4972234;28;20041;-90
2022/02/27 10:05:42;;;;;;;17.92;6.35;;;;;;;;;;4989269;28;20049;-87
2022/02/27 10:08:09;;;;;;;13.63;5.68;;;;;;;;;;5001857;28;20184;-88
2022/02/27 10:10:36;;;;;;;15.27;5.90;;;;;;;;;;4986096;28;20394;-88
2022/02/27 10:13:02;;;;;;;15.65;6.55;;;;;;;;;;4973307;28;20034;-88
2022/02/27 10:15:28;;;;;;;16.77;5.85;;;;;;;;;;4973237;28;20397;-87
2022/02/27 10:17:55;;;;;;;14.68;5.50;;;;;;;;;;4986901;28;20121;-86
2022/02/27 10:20:24;;;;;;;14.07;5.47;;;;;;;;;;4969486;28;20064;-88
2022/02/27 10:22:51;;;;;;;13.55;5.78;;;;;;;;;;4997856;28;20053;-88
2022/02/27 10:25:17;;;;;;;14.68;5.57;;;;;;;;;;5006100;28;20033;-88
2022/02/27 10:27:43;;;;;;;16.63;5.40;;;;;;;;;;4987916;28;20034;-87
2022/02/27 10:30:13;;;;;;;14.88;5.32;;;;;;;;;;4985614;28;20052;-87
2022/02/27 10:32:45;;;;;;;15.55;5.32;;;;;;;;;;4971042;28;20082;-87
2022/02/27 10:35:12;;;;;;;13.45;5.32;;;;;;;;;;4996695;28;20042;-88
2022/02/27 10:37:44;;;;;;;15.35;5.35;;;;;;;;;;4991420;28;20037;-88
2022/02/27 10:40:10;;;;;;;14.53;5.30;;;;;;;;;;4990867;28;20042;-87
2022/02/27 10:42:36;;;;;;;11.93;5.32;;;;;;;;;;4989283;28;20791;-87
2022/02/27 10:45:06;;;;;;;15.38;4.68;;;;;;;;;;4981126;28;20038;-87
2022/02/27 10:47:32;;;;;;;12.88;5.25;;;;;;;;;;4986090;28;20125;-87
2022/02/27 10:50:00;;;;;;;11.02;5.00;;;;;;;;;;4988634;28;20701;-86
2022/02/27 10:52:33;;;;;;;16.00;4.68;;;;;;;;;;4985976;28;20052;-86
2022/02/27 10:55:06;;;;;;;13.80;5.00;;;;;;;;;;4988469;28;20041;-87
2022/02/27 10:57:36;;;;;;;12.75;5.50;;;;;;;;;;4985608;28;20060;-87
2022/02/27 11:00:19;;;;;;;14.88;5.05;;;5.20;99.90;;;;;;4994118;28;20073;-87
2022/02/27 11:03:01;;;;;;;15.43;5.25;;;6.90;99.90;;;;;;4985122;28;20425;-89
2022/02/27 11:05:28;;;;;;;9.45;4.55;;;;;;;;;;5003404;28;20041;-88
2022/02/27 11:07:56;;;;;;;12.18;4.80;;;;;;;;;;4983794;28;20045;-89
2022/02/27 11:10:27;;;;;;;13.52;4.78;;;;;;;;;;4991270;28;20048;-88
2022/02/27 11:12:54;;;;;;;11.80;5.20;;;;;;;;;;4991014;28;20096;-88
2022/02/27 11:15:21;;;;;;;15.30;5.45;;;;;;;;;;5007094;28;20030;-88
2022/02/27 11:17:48;;;;;;;14.48;4.78;;;;;;;;;;4986867;28;20105;-88
2022/02/27 11:20:15;;;;;;;11.63;4.78;;;;;;;;;;4974153;28;20037;-88
2022/02/27 11:22:41;;;;;;;17.27;5.18;;;;;;;;;;4990001;28;20100;-88
2022/02/27 11:25:08;;;;;;;15.52;5.18;;;;;;;;;;4967995;28;20107;-87
2022/02/27 11:27:36;;;;;;;10.95;4.85;;;;;;;;;;4973216;28;20034;-90
2022/02/27 11:30:02;;;;;;;14.95;5.00;;;;;;;;;;5010790;28;20042;-88
2022/02/27 11:32:28;;;;;;;12.02;5.43;;;;;;;;;;4987654;28;20392;-88
2022/02/27 11:34:54;;;;;;;13.68;5.38;;;;;;;;;;4973688;28;20035;-88
2022/02/27 11:37:39;;;;;;;12.27;5.00;;;;;;;;;;4987206;28;20121;-88
2022/02/27 11:40:28;;;;;;;13.77;4.90;;;;;;;;;;5017890;28;20116;-88
2022/02/27 11:42:55;;;;;;;15.48;5.20;;;;;;;;;;4987576;28;20046;-88
2022/02/27 11:45:33;;;;;;;13.30;4.95;;;;;;;;;;4973087;28;20049;-88
2022/02/27 11:47:59;;;;;;;15.13;5.70;;;;;;;;;;5002031;28;20087;-88
2022/02/27 11:50:27;;;;;;;12.80;4.90;;;;;;;;;;4992688;28;20049;-88
2022/02/27 11:52:53;;;;;;;12.38;5.68;;;;;;;;;;4986563;28;20065;-88
2022/02/27 11:55:38;;;;;;;15.75;4.88;;;;;;;;;;4975681;28;20404;-88
2022/02/27 11:58:04;;;;;;;13.00;4.82;;;;;;;;;;5004873;28;20355;-88
2022/02/27 12:00:40;;;;;;;14.00;5.22;;;;;;;;;;4974886;28;20050;-88
2022/02/27 12:03:24;;;;;;;11.98;4.65;;;;;;;;;;5003354;28;20038;-88
2022/02/27 12:05:52;;;;;;;12.65;5.13;;;;;;;;;;4989428;28;20046;-88
2022/02/27 12:08:18;;;;;;;10.32;4.60;;;;;;;;;;4990396;28;20038;-88
2022/02/27 12:10:45;;;;;;;14.38;4.65;;;;;;;;;;4988820;28;20050;-88
2022/02/27 12:13:33;;;;;;;12.02;4.93;;;;;;;;;;5014686;28;20049;-89
2022/02/27 12:16:05;;;;;;;10.15;4.20;;;;;;;;;;4990432;28;20042;-88
2022/02/27 12:18:45;;;;;;;12.80;4.82;;;;;;;;;;5006381;28;20100;-89
2022/02/27 12:21:12;;;;;;;11.80;4.53;;;;;;;;;;4997092;28;20037;-88
2022/02/27 12:23:40;;;;;;;11.35;4.07;;;;;;;;;;4990732;28;20037;-88
2022/02/27 12:26:08;;;;;;;8.27;4.28;;;;;;;;;;4987690;28;20392;-89
2022/02/27 12:28:52;;;;;;;11.20;4.80;;;;;;;;;;4985161;28;20128;-88
2022/02/27 12:31:21;;;;;;;11.68;4.47;;;;;;;;;;4990162;28;20279;-89
2022/02/27 12:33:49;;;;;;;11.95;4.75;;;;;;;;;;4990044;28;20073;-88
2022/02/27 12:36:26;;;;;;;8.18;4.18;;;;;;;;;;4986027;28;20037;-88
2022/02/27 12:38:56;;;;;;;8.02;3.95;;;;;;;;;;4985751;28;20034;-88
2022/02/27 12:41:23;;;;;;;12.90;4.45;;;;;;;;;;4987135;28;20038;-89
2022/02/27 12:43:49;;;;;;;10.13;4.07;;;;;;;;;;5005126;28;20119;-88
2022/02/27 12:46:15;;;;;;;16.88;4.25;;;;;;;;;;4988927;28;20038;-88
2022/02/27 12:51:31;;;;;;;12.95;4.00;;;;;;;;;;5003256;28;20099;-90
2022/02/27 12:53:58;;;;;;;8.88;3.65;;;;;;;;;;4990478;28;20386;-89
2022/02/27 12:56:25;;;;;;;9.57;3.80;;;;;;;;;;4984701;28;20544;-88
2022/02/27 12:58:53;;;;;;;9.57;4.05;;;;;;;;;;4988881;28;20527;-88
2022/02/27 13:01:27;;;;;;;14.65;4.60;;;;;;;;;;5003228;28;20471;-88